Terminal Aerodrome Forecast
Issued by NWS Duluth, MN

Home | Current Version | Previous Version | Text Only | Print | Product List | Glossary On
Versions: 1 2 3 4 5 6 7 8 9 10 11 12 13 14 15 16 17 18 19
000
FTUS43 KDLH 070500
TAFINL
TAF
KINL 070520Z 0706/0806 14007KT P6SM VCSH BKN040 OVC090
      WS015/19040KT
     FM070900 16008KT 5SM BR VCSH BKN035 WS015/19040KT
     FM071200 15008KT 4SM -SHRA BR BKN012 OVC025
     FM071500 15008KT P6SM VCSH SCT015 BKN040
     FM071700 17010KT 5SM -SHRA BR BKN015 OVC040
     FM080000 28012KT 3SM -SHRA BR OVC008=

USA.gov is the U.S. government's official web portal to all federal, state and local government web resources and services.